Stornoway — WDC7908 — position and weather

sailwx.info

Track history (hours):
 
Tides and Currents Weather Stations Pressure Air Temp Water Temp Dewpoint Dewpoint Depression Visibility Wind Speed Wind Dir Waves Ship Positions

Stornoway

Owner: Matthews, William R, Bainbridge Island, WA. More information available from US FCC via Universal Licensing System and Coast Guard Vessel Documentation Center.

Last reported at 2016-Feb-04 16:23 UTC. Time now 2016-Feb-06 00:16 UTC.
Position N 47°42' W 122°32'.

Length 13 m.

Type: Pleasure craft. MMSI: 367078810.

Date/timePositionNaut miles runAvg speedWind from/ knotsBaromVisibWave heightAir tempDewpointWater temp
2016-Feb-04 16:23N 47°42' W 122°32'7 7.8
2016-Feb-04 15:33N 47°38' W 122°24'3 2.3
2016-Feb-04 14:24N 47°37' W 122°21'0 0.0
2016-Feb-04 13:33N 47°37' W 122°21'0 0.0
2016-Feb-04 12:33N 47°37' W 122°21'0 0.0
2016-Feb-04 11:33N 47°37' W 122°21'0 0.0
2016-Feb-04 10:33N 47°37' W 122°21'0 0.0
2016-Feb-04 09:33N 47°37' W 122°21'0 0.0
2016-Feb-04 08:33N 47°37' W 122°21'0 0.0
2016-Feb-04 07:33N 47°37' W 122°21'0 0.0
2016-Feb-04 06:33N 47°37' W 122°21'0 0.0
2016-Feb-04 05:32N 47°37' W 122°21'0 0.0
2016-Feb-04 04:33N 47°37' W 122°21'0 0.0
2016-Feb-04 03:33N 47°37' W 122°21'0 0.0
2016-Feb-04 02:30N 47°37' W 122°21'0 0.0
2016-Feb-04 01:33N 47°37' W 122°21'0 0.0
2016-Feb-04 00:29N 47°37' W 122°21'0 0.0
2016-Feb-03 23:33N 47°37' W 122°21'0 0.0
2016-Feb-03 22:33N 47°37' W 122°21'0 0.0
2016-Feb-03 21:33N 47°37' W 122°21'0 0.0
2016-Feb-03 20:33N 47°37' W 122°21'0 0.0
2016-Feb-03 19:33N 47°37' W 122°21'0 0.0
2016-Feb-03 18:30N 47°37' W 122°21'0 0.0
2016-Feb-03 17:33N 47°37' W 122°21'0 0.0
2016-Feb-03 16:33N 47°37' W 122°21'0 0.0
2016-Feb-03 15:33N 47°37' W 122°21'0 0.0
2016-Feb-03 14:33N 47°37' W 122°21'0 0.0
2016-Feb-03 13:30N 47°37' W 122°21'0 0.0
2016-Feb-03 12:33N 47°37' W 122°21'0 0.0
2016-Feb-03 11:33N 47°37' W 122°21'0 0.0
2016-Feb-03 10:33N 47°37' W 122°21'0 0.0
2016-Feb-03 09:33N 47°37' W 122°21'0 0.0
2016-Feb-03 08:33N 47°37' W 122°21'0 0.0
2016-Feb-03 07:33N 47°37' W 122°21'0 0.0
2016-Feb-03 06:33N 47°37' W 122°21'0 0.0
2016-Feb-03 05:33N 47°37' W 122°21'0 0.0
2016-Feb-03 04:33N 47°37' W 122°21'0 0.0
2016-Feb-03 03:33N 47°37' W 122°21'0 0.0
2016-Feb-03 02:30N 47°37' W 122°21'0 0.0
2016-Feb-03 01:33N 47°37' W 122°21'0 0.0
2016-Feb-03 00:33N 47°37' W 122°21'0 0.0
2016-Feb-02 23:33N 47°37' W 122°21'0 0.0
2016-Feb-02 22:33N 47°37' W 122°21'0 0.0
2016-Feb-02 21:34N 47°37' W 122°21'0 0.0
2016-Feb-02 20:30N 47°37' W 122°21'0 0.0
2016-Feb-02 19:33N 47°37' W 122°21'7 6.7
2016-Feb-02 18:33N 47°41' W 122°28'  
2016-Jan-25 20:22N 47°43' W 122°32'6 7.9
2016-Jan-25 19:33N 47°49' W 122°29'8 7.7
2016-Jan-25 18:33N 47°55' W 122°34'  
Track history (hours):
 
Tides and Currents Weather Stations Pressure Air Temp Water Temp Dewpoint Dewpoint Depression Visibility Wind Speed Wind Dir Waves Ship Positions

Stornoway

Owner: Matthews, William R, Bainbridge Island, WA. More information available from US FCC via Universal Licensing System and Coast Guard Vessel Documentation Center.

Last reported at 2016-Feb-04 16:23 UTC. Time now 2016-Feb-06 00:16 UTC.
Position N 47°42' W 122°32'.

Length 13 m.

Type: Pleasure craft. MMSI: 367078810.

Date/timePositionNaut miles runAvg speedWind from/ knotsBaromVisibWave heightAir tempDewpointWater temp
2016-Feb-04 16:23N 47°42' W 122°32'7 7.8
2016-Feb-04 15:33N 47°38' W 122°24'3 2.3
2016-Feb-04 14:24N 47°37' W 122°21'0 0.0
2016-Feb-04 13:33N 47°37' W 122°21'0 0.0
2016-Feb-04 12:33N 47°37' W 122°21'0 0.0
2016-Feb-04 11:33N 47°37' W 122°21'0 0.0
2016-Feb-04 10:33N 47°37' W 122°21'0 0.0
2016-Feb-04 09:33N 47°37' W 122°21'0 0.0
2016-Feb-04 08:33N 47°37' W 122°21'0 0.0
2016-Feb-04 07:33N 47°37' W 122°21'0 0.0
2016-Feb-04 06:33N 47°37' W 122°21'0 0.0
2016-Feb-04 05:32N 47°37' W 122°21'0 0.0
2016-Feb-04 04:33N 47°37' W 122°21'0 0.0
2016-Feb-04 03:33N 47°37' W 122°21'0 0.0
2016-Feb-04 02:30N 47°37' W 122°21'0 0.0
2016-Feb-04 01:33N 47°37' W 122°21'0 0.0
2016-Feb-04 00:29N 47°37' W 122°21'0 0.0
2016-Feb-03 23:33N 47°37' W 122°21'0 0.0
2016-Feb-03 22:33N 47°37' W 122°21'0 0.0
2016-Feb-03 21:33N 47°37' W 122°21'0 0.0
2016-Feb-03 20:33N 47°37' W 122°21'0 0.0
2016-Feb-03 19:33N 47°37' W 122°21'0 0.0
2016-Feb-03 18:30N 47°37' W 122°21'0 0.0
2016-Feb-03 17:33N 47°37' W 122°21'0 0.0
2016-Feb-03 16:33N 47°37' W 122°21'0 0.0
2016-Feb-03 15:33N 47°37' W 122°21'0 0.0
2016-Feb-03 14:33N 47°37' W 122°21'0 0.0
2016-Feb-03 13:30N 47°37' W 122°21'0 0.0
2016-Feb-03 12:33N 47°37' W 122°21'0 0.0
2016-Feb-03 11:33N 47°37' W 122°21'0 0.0
2016-Feb-03 10:33N 47°37' W 122°21'0 0.0
2016-Feb-03 09:33N 47°37' W 122°21'0 0.0
2016-Feb-03 08:33N 47°37' W 122°21'0 0.0
2016-Feb-03 07:33N 47°37' W 122°21'0 0.0
2016-Feb-03 06:33N 47°37' W 122°21'0 0.0
2016-Feb-03 05:33N 47°37' W 122°21'0 0.0
2016-Feb-03 04:33N 47°37' W 122°21'0 0.0
2016-Feb-03 03:33N 47°37' W 122°21'0 0.0
2016-Feb-03 02:30N 47°37' W 122°21'0 0.0
2016-Feb-03 01:33N 47°37' W 122°21'0 0.0
2016-Feb-03 00:33N 47°37' W 122°21'0 0.0
2016-Feb-02 23:33N 47°37' W 122°21'0 0.0
2016-Feb-02 22:33N 47°37' W 122°21'0 0.0
2016-Feb-02 21:34N 47°37' W 122°21'0 0.0
2016-Feb-02 20:30N 47°37' W 122°21'0 0.0
2016-Feb-02 19:33N 47°37' W 122°21'7 6.7
2016-Feb-02 18:33N 47°41' W 122°28'  
2016-Jan-25 20:22N 47°43' W 122°32'6 7.9
2016-Jan-25 19:33N 47°49' W 122°29'8 7.7
2016-Jan-25 18:33N 47°55' W 122°34'  

Dump ship's entire track history